HKG weather

Hong Kong International Airport
Hong Kong, Hong Kong

Public forecast

Using degrees Celsius for public forecast. Weather courtesy of forecast.io.

METAR (pilot weather report)

Retrieved 2019/03/20 23:30 UTC (21 minutes ago):

VHHH 202330Z 04003KT 360V100 7000 FEW010 24/21 Q1011 NOSIG

TAF (pilot weather forecast)

Retrieved 2019/03/20 18:22 UTC (5 hours ago):

TAF VHHH 201700Z 2018/2124 15010KT 7000 FEW012 SCT035 TX28/2106Z TN23/2022Z TN23/2122Z TEMPO 2018/2024 VRB05KT 3000 BR TEMPO 2102/2110 22010KT TEMPO 2118/2124 VRB05KT 3000 BR